sensor_id;sensor_type;location;lat;lon;timestamp;P1;durP1;ratioP1;P2;durP2;ratioP2
51866;SDS011;52862;52.504;13.480;2023-11-21T00:00:16;20.20;;;10.43;;
51866;SDS011;52862;52.504;13.480;2023-11-21T00:02:44;21.60;;;11.10;;
51866;SDS011;52862;52.504;13.480;2023-11-21T00:05:11;20.37;;;11.57;;
51866;SDS011;52862;52.504;13.480;2023-11-21T00:07:40;24.03;;;13.10;;
51866;SDS011;52862;52.504;13.480;2023-11-21T00:10:08;26.03;;;12.83;;
51866;SDS011;52862;52.504;13.480;2023-11-21T00:12:37;26.93;;;13.80;;
51866;SDS011;52862;52.504;13.480;2023-11-21T00:15:04;32.83;;;14.83;;
51866;SDS011;52862;52.504;13.480;2023-11-21T00:17:35;33.73;;;14.63;;
51866;SDS011;52862;52.504;13.480;2023-11-21T00:20:02;33.47;;;15.23;;
51866;SDS011;52862;52.504;13.480;2023-11-21T00:22:32;36.60;;;16.03;;
51866;SDS011;52862;52.504;13.480;2023-11-21T00:24:58;37.33;;;15.27;;
51866;SDS011;52862;52.504;13.480;2023-11-21T00:27:25;45.67;;;18.63;;
51866;SDS011;52862;52.504;13.480;2023-11-21T00:29:52;51.03;;;19.17;;
51866;SDS011;52862;52.504;13.480;2023-11-21T00:32:19;43.77;;;19.47;;
51866;SDS011;52862;52.504;13.480;2023-11-21T00:34:46;46.07;;;20.30;;
51866;SDS011;52862;52.504;13.480;2023-11-21T00:37:14;47.67;;;20.63;;
51866;SDS011;52862;52.504;13.480;2023-11-21T00:39:40;44.47;;;21.87;;
51866;SDS011;52862;52.504;13.480;2023-11-21T00:42:07;49.13;;;20.03;;
51866;SDS011;52862;52.504;13.480;2023-11-21T00:44:34;50.27;;;21.97;;
51866;SDS011;52862;52.504;13.480;2023-11-21T00:47:04;64.80;;;21.07;;
51866;SDS011;52862;52.504;13.480;2023-11-21T00:49:31;61.47;;;25.13;;
51866;SDS011;52862;52.504;13.480;2023-11-21T00:51:59;52.20;;;25.10;;
51866;SDS011;52862;52.504;13.480;2023-11-21T00:54:26;77.67;;;24.43;;
51866;SDS011;52862;52.504;13.480;2023-11-21T00:56:53;62.47;;;24.77;;
51866;SDS011;52862;52.504;13.480;2023-11-21T00:59:20;66.43;;;24.90;;
51866;SDS011;52862;52.504;13.480;2023-11-21T01:01:48;65.57;;;23.93;;
51866;SDS011;52862;52.504;13.480;2023-11-21T01:04:15;77.43;;;25.60;;
51866;SDS011;52862;52.504;13.480;2023-11-21T01:06:42;74.43;;;23.43;;
51866;SDS011;52862;52.504;13.480;2023-11-21T01:09:09;66.40;;;25.77;;
51866;SDS011;52862;52.504;13.480;2023-11-21T01:11:36;78.33;;;26.33;;
51866;SDS011;52862;52.504;13.480;2023-11-21T01:14:03;76.13;;;24.57;;
51866;SDS011;52862;52.504;13.480;2023-11-21T01:16:30;87.50;;;28.13;;
51866;SDS011;52862;52.504;13.480;2023-11-21T01:18:58;98.90;;;30.47;;
51866;SDS011;52862;52.504;13.480;2023-11-21T01:21:25;91.37;;;29.47;;
51866;SDS011;52862;52.504;13.480;2023-11-21T01:23:51;83.70;;;29.63;;
51866;SDS011;52862;52.504;13.480;2023-11-21T01:26:19;94.07;;;31.00;;
51866;SDS011;52862;52.504;13.480;2023-11-21T01:28:46;103.37;;;30.70;;
51866;SDS011;52862;52.504;13.480;2023-11-21T01:31:14;97.60;;;32.00;;
51866;SDS011;52862;52.504;13.480;2023-11-21T01:33:41;104.43;;;31.63;;
51866;SDS011;52862;52.504;13.480;2023-11-21T01:36:09;128.53;;;34.80;;
51866;SDS011;52862;52.504;13.480;2023-11-21T01:38:36;105.90;;;33.97;;
51866;SDS011;52862;52.504;13.480;2023-11-21T01:41:02;111.77;;;34.43;;
51866;SDS011;52862;52.504;13.480;2023-11-21T01:43:30;103.53;;;37.27;;
51866;SDS011;52862;52.504;13.480;2023-11-21T01:45:57;113.43;;;35.30;;
51866;SDS011;52862;52.504;13.480;2023-11-21T01:48:24;130.93;;;36.67;;
51866;SDS011;52862;52.504;13.480;2023-11-21T01:50:52;148.00;;;40.63;;
51866;SDS011;52862;52.504;13.480;2023-11-21T01:53:18;157.50;;;42.03;;
51866;SDS011;52862;52.504;13.480;2023-11-21T01:55:46;143.13;;;39.90;;
51866;SDS011;52862;52.504;13.480;2023-11-21T01:58:13;121.27;;;37.00;;
51866;SDS011;52862;52.504;13.480;2023-11-21T02:00:40;135.43;;;38.17;;
51866;SDS011;52862;52.504;13.480;2023-11-21T02:03:07;127.10;;;36.70;;
51866;SDS011;52862;52.504;13.480;2023-11-21T02:05:36;141.93;;;36.90;;
51866;SDS011;52862;52.504;13.480;2023-11-21T02:08:03;145.67;;;35.77;;
51866;SDS011;52862;52.504;13.480;2023-11-21T02:10:30;122.20;;;34.40;;
51866;SDS011;52862;52.504;13.480;2023-11-21T02:12:57;113.30;;;32.40;;
51866;SDS011;52862;52.504;13.480;2023-11-21T02:15:25;110.17;;;30.17;;
51866;SDS011;52862;52.504;13.480;2023-11-21T02:17:55;118.80;;;30.40;;
51866;SDS011;52862;52.504;13.480;2023-11-21T02:20:24;100.10;;;27.60;;
51866;SDS011;52862;52.504;13.480;2023-11-21T02:22:53;99.40;;;26.27;;
51866;SDS011;52862;52.504;13.480;2023-11-21T02:25:23;97.17;;;25.53;;
51866;SDS011;52862;52.504;13.480;2023-11-21T02:27:50;84.17;;;25.47;;
51866;SDS011;52862;52.504;13.480;2023-11-21T02:30:17;73.83;;;21.97;;
51866;SDS011;52862;52.504;13.480;2023-11-21T02:32:44;82.40;;;20.83;;
51866;SDS011;52862;52.504;13.480;2023-11-21T02:35:15;76.93;;;22.40;;
51866;SDS011;52862;52.504;13.480;2023-11-21T02:37:41;75.17;;;22.63;;
51866;SDS011;52862;52.504;13.480;2023-11-21T02:40:09;66.70;;;20.73;;
51866;SDS011;52862;52.504;13.480;2023-11-21T02:42:38;55.53;;;19.73;;
51866;SDS011;52862;52.504;13.480;2023-11-21T02:45:05;68.87;;;21.33;;
51866;SDS011;52862;52.504;13.480;2023-11-21T02:47:33;57.40;;;19.10;;
51866;SDS011;52862;52.504;13.480;2023-11-21T02:50:00;66.83;;;19.70;;
51866;SDS011;52862;52.504;13.480;2023-11-21T02:52:26;56.57;;;18.57;;
51866;SDS011;52862;52.504;13.480;2023-11-21T02:54:53;50.77;;;17.77;;
51866;SDS011;52862;52.504;13.480;2023-11-21T02:57:21;49.37;;;17.67;;
51866;SDS011;52862;52.504;13.480;2023-11-21T02:59:47;42.73;;;15.80;;
51866;SDS011;52862;52.504;13.480;2023-11-21T03:02:14;41.23;;;16.40;;
51866;SDS011;52862;52.504;13.480;2023-11-21T03:04:41;45.17;;;16.40;;
51866;SDS011;52862;52.504;13.480;2023-11-21T03:07:08;35.43;;;14.37;;
51866;SDS011;52862;52.504;13.480;2023-11-21T03:09:35;37.60;;;16.13;;
51866;SDS011;52862;52.504;13.480;2023-11-21T03:12:03;38.83;;;16.30;;
51866;SDS011;52862;52.504;13.480;2023-11-21T03:14:30;28.43;;;15.07;;
51866;SDS011;52862;52.504;13.480;2023-11-21T03:16:57;33.27;;;13.53;;
51866;SDS011;52862;52.504;13.480;2023-11-21T03:19:24;33.27;;;14.60;;
51866;SDS011;52862;52.504;13.480;2023-11-21T03:21:51;35.40;;;15.20;;
51866;SDS011;52862;52.504;13.480;2023-11-21T03:24:18;33.77;;;15.30;;
51866;SDS011;52862;52.504;13.480;2023-11-21T03:26:45;26.20;;;12.83;;
51866;SDS011;52862;52.504;13.480;2023-11-21T03:29:12;28.93;;;14.00;;
51866;SDS011;52862;52.504;13.480;2023-11-21T03:31:40;19.63;;;11.33;;
51866;SDS011;52862;52.504;13.480;2023-11-21T03:34:10;23.17;;;12.70;;
51866;SDS011;52862;52.504;13.480;2023-11-21T03:36:41;21.87;;;11.87;;
51866;SDS011;52862;52.504;13.480;2023-11-21T03:39:08;24.23;;;12.40;;
51866;SDS011;52862;52.504;13.480;2023-11-21T03:41:35;20.80;;;11.40;;
51866;SDS011;52862;52.504;13.480;2023-11-21T03:44:01;26.63;;;13.27;;
51866;SDS011;52862;52.504;13.480;2023-11-21T03:46:28;21.80;;;11.40;;
51866;SDS011;52862;52.504;13.480;2023-11-21T03:48:56;21.73;;;11.40;;
51866;SDS011;52862;52.504;13.480;2023-11-21T03:51:22;25.23;;;12.37;;
51866;SDS011;52862;52.504;13.480;2023-11-21T03:53:49;24.97;;;12.57;;
51866;SDS011;52862;52.504;13.480;2023-11-21T03:56:16;18.43;;;10.47;;
51866;SDS011;52862;52.504;13.480;2023-11-21T03:58:42;19.87;;;11.43;;
51866;SDS011;52862;52.504;13.480;2023-11-21T04:01:09;21.83;;;12.13;;
51866;SDS011;52862;52.504;13.480;2023-11-21T04:03:36;22.47;;;12.33;;
51866;SDS011;52862;52.504;13.480;2023-11-21T04:06:05;22.03;;;11.73;;
51866;SDS011;52862;52.504;13.480;2023-11-21T04:08:32;22.60;;;12.07;;
51866;SDS011;52862;52.504;13.480;2023-11-21T04:10:59;22.07;;;10.50;;
51866;SDS011;52862;52.504;13.480;2023-11-21T04:13:26;29.03;;;11.10;;
51866;SDS011;52862;52.504;13.480;2023-11-21T04:15:53;19.67;;;10.77;;
51866;SDS011;52862;52.504;13.480;2023-11-21T04:18:20;20.60;;;10.80;;
51866;SDS011;52862;52.504;13.480;2023-11-21T04:20:48;23.77;;;11.83;;
51866;SDS011;52862;52.504;13.480;2023-11-21T04:23:15;19.77;;;11.10;;
51866;SDS011;52862;52.504;13.480;2023-11-21T04:25:42;23.83;;;10.47;;
51866;SDS011;52862;52.504;13.480;2023-11-21T04:28:09;19.17;;;10.77;;
51866;SDS011;52862;52.504;13.480;2023-11-21T04:30:35;20.30;;;11.07;;
51866;SDS011;52862;52.504;13.480;2023-11-21T04:33:02;22.73;;;11.13;;
51866;SDS011;52862;52.504;13.480;2023-11-21T04:35:29;18.27;;;10.00;;
51866;SDS011;52862;52.504;13.480;2023-11-21T04:37:56;19.67;;;9.73;;
51866;SDS011;52862;52.504;13.480;2023-11-21T04:40:23;16.23;;;9.60;;
51866;SDS011;52862;52.504;13.480;2023-11-21T04:42:53;21.50;;;10.77;;
51866;SDS011;52862;52.504;13.480;2023-11-21T04:45:19;18.17;;;10.27;;
51866;SDS011;52862;52.504;13.480;2023-11-21T04:47:46;18.67;;;9.57;;
51866;SDS011;52862;52.504;13.480;2023-11-21T04:50:13;18.00;;;9.53;;
51866;SDS011;52862;52.504;13.480;2023-11-21T04:52:40;17.20;;;9.57;;
51866;SDS011;52862;52.504;13.480;2023-11-21T04:55:07;19.63;;;9.03;;
51866;SDS011;52862;52.504;13.480;2023-11-21T04:57:36;17.87;;;9.07;;
51866;SDS011;52862;52.504;13.480;2023-11-21T05:00:03;17.50;;;8.70;;
51866;SDS011;52862;52.504;13.480;2023-11-21T05:02:31;16.43;;;8.57;;
51866;SDS011;52862;52.504;13.480;2023-11-21T05:05:01;17.37;;;8.67;;
51866;SDS011;52862;52.504;13.480;2023-11-21T05:07:31;16.27;;;8.27;;
51866;SDS011;52862;52.504;13.480;2023-11-21T05:10:01;16.17;;;8.30;;
51866;SDS011;52862;52.504;13.480;2023-11-21T05:12:30;15.37;;;8.57;;
51866;SDS011;52862;52.504;13.480;2023-11-21T05:15:01;14.83;;;7.90;;
51866;SDS011;52862;52.504;13.480;2023-11-21T05:17:33;13.60;;;7.43;;
51866;SDS011;52862;52.504;13.480;2023-11-21T05:20:00;11.87;;;7.37;;
51866;SDS011;52862;52.504;13.480;2023-11-21T05:22:29;15.37;;;7.60;;
51866;SDS011;52862;52.504;13.480;2023-11-21T05:24:56;14.27;;;6.97;;
51866;SDS011;52862;52.504;13.480;2023-11-21T05:27:24;15.57;;;7.83;;
51866;SDS011;52862;52.504;13.480;2023-11-21T05:29:51;17.13;;;7.87;;
51866;SDS011;52862;52.504;13.480;2023-11-21T05:32:19;13.37;;;7.50;;
51866;SDS011;52862;52.504;13.480;2023-11-21T05:34:45;15.90;;;7.53;;
51866;SDS011;52862;52.504;13.480;2023-11-21T05:37:12;15.77;;;8.20;;
51866;SDS011;52862;52.504;13.480;2023-11-21T05:39:39;15.33;;;7.67;;
51866;SDS011;52862;52.504;13.480;2023-11-21T05:42:06;13.33;;;7.13;;
51866;SDS011;52862;52.504;13.480;2023-11-21T05:44:34;16.00;;;7.83;;
51866;SDS011;52862;52.504;13.480;2023-11-21T05:47:01;15.53;;;7.30;;
51866;SDS011;52862;52.504;13.480;2023-11-21T05:49:28;15.53;;;7.03;;
51866;SDS011;52862;52.504;13.480;2023-11-21T05:51:55;14.70;;;7.00;;
51866;SDS011;52862;52.504;13.480;2023-11-21T05:54:25;14.07;;;7.53;;
51866;SDS011;52862;52.504;13.480;2023-11-21T05:56:52;11.77;;;6.27;;
51866;SDS011;52862;52.504;13.480;2023-11-21T05:59:18;12.47;;;6.97;;
51866;SDS011;52862;52.504;13.480;2023-11-21T06:01:48;13.13;;;6.80;;
51866;SDS011;52862;52.504;13.480;2023-11-21T06:04:15;10.83;;;6.43;;
51866;SDS011;52862;52.504;13.480;2023-11-21T06:06:43;12.63;;;6.63;;
51866;SDS011;52862;52.504;13.480;2023-11-21T06:09:09;9.80;;;5.83;;
51866;SDS011;52862;52.504;13.480;2023-11-21T06:11:37;13.63;;;6.20;;
51866;SDS011;52862;52.504;13.480;2023-11-21T06:14:04;12.47;;;6.03;;
51866;SDS011;52862;52.504;13.480;2023-11-21T06:16:33;12.43;;;6.73;;
51866;SDS011;52862;52.504;13.480;2023-11-21T06:19:00;13.10;;;6.73;;
51866;SDS011;52862;52.504;13.480;2023-11-21T06:21:27;20.43;;;7.27;;
51866;SDS011;52862;52.504;13.480;2023-11-21T06:23:55;13.87;;;6.90;;
51866;SDS011;52862;52.504;13.480;2023-11-21T06:26:22;11.53;;;6.67;;
51866;SDS011;52862;52.504;13.480;2023-11-21T06:28:49;17.27;;;7.83;;
51866;SDS011;52862;52.504;13.480;2023-11-21T06:31:17;13.80;;;7.53;;
51866;SDS011;52862;52.504;13.480;2023-11-21T06:33:43;13.67;;;8.07;;
51866;SDS011;52862;52.504;13.480;2023-11-21T06:36:10;19.70;;;8.90;;
51866;SDS011;52862;52.504;13.480;2023-11-21T06:38:37;17.70;;;8.67;;
51866;SDS011;52862;52.504;13.480;2023-11-21T06:41:05;17.43;;;8.90;;
51866;SDS011;52862;52.504;13.480;2023-11-21T06:43:33;17.43;;;8.70;;
51866;SDS011;52862;52.504;13.480;2023-11-21T06:46:00;20.97;;;8.53;;
51866;SDS011;52862;52.504;13.480;2023-11-21T06:48:27;16.03;;;8.23;;
51866;SDS011;52862;52.504;13.480;2023-11-21T06:50:55;15.03;;;7.77;;
51866;SDS011;52862;52.504;13.480;2023-11-21T06:53:22;14.97;;;7.83;;
51866;SDS011;52862;52.504;13.480;2023-11-21T06:55:49;16.10;;;7.37;;
51866;SDS011;52862;52.504;13.480;2023-11-21T06:58:17;12.70;;;7.53;;
51866;SDS011;52862;52.504;13.480;2023-11-21T07:00:43;19.47;;;7.50;;
51866;SDS011;52862;52.504;13.480;2023-11-21T07:03:12;13.33;;;7.20;;
51866;SDS011;52862;52.504;13.480;2023-11-21T07:05:39;13.93;;;7.03;;
51866;SDS011;52862;52.504;13.480;2023-11-21T07:08:06;12.83;;;7.13;;
51866;SDS011;52862;52.504;13.480;2023-11-21T07:10:33;13.37;;;7.00;;
51866;SDS011;52862;52.504;13.480;2023-11-21T07:13:02;17.63;;;6.00;;
51866;SDS011;52862;52.504;13.480;2023-11-21T07:15:29;19.53;;;6.80;;
51866;SDS011;52862;52.504;13.480;2023-11-21T07:17:56;13.60;;;6.90;;
51866;SDS011;52862;52.504;13.480;2023-11-21T07:20:23;12.33;;;6.90;;
51866;SDS011;52862;52.504;13.480;2023-11-21T07:22:50;14.13;;;7.27;;
51866;SDS011;52862;52.504;13.480;2023-11-21T07:25:17;15.37;;;7.67;;
51866;SDS011;52862;52.504;13.480;2023-11-21T07:27:44;18.33;;;7.30;;
51866;SDS011;52862;52.504;13.480;2023-11-21T07:30:11;14.27;;;7.47;;
51866;SDS011;52862;52.504;13.480;2023-11-21T07:32:39;15.30;;;7.37;;
51866;SDS011;52862;52.504;13.480;2023-11-21T07:35:07;12.43;;;6.50;;
51866;SDS011;52862;52.504;13.480;2023-11-21T07:37:34;11.30;;;6.07;;
51866;SDS011;52862;52.504;13.480;2023-11-21T07:40:02;11.40;;;6.53;;
51866;SDS011;52862;52.504;13.480;2023-11-21T07:42:30;10.93;;;5.27;;
51866;SDS011;52862;52.504;13.480;2023-11-21T07:44:57;11.13;;;6.50;;
51866;SDS011;52862;52.504;13.480;2023-11-21T07:47:23;13.47;;;6.30;;
51866;SDS011;52862;52.504;13.480;2023-11-21T07:49:53;11.83;;;5.93;;
51866;SDS011;52862;52.504;13.480;2023-11-21T07:52:21;14.17;;;6.03;;
51866;SDS011;52862;52.504;13.480;2023-11-21T07:54:48;18.40;;;6.43;;
51866;SDS011;52862;52.504;13.480;2023-11-21T07:57:15;12.83;;;6.20;;
51866;SDS011;52862;52.504;13.480;2023-11-21T07:59:42;20.67;;;7.60;;
51866;SDS011;52862;52.504;13.480;2023-11-21T08:02:08;31.07;;;8.57;;
51866;SDS011;52862;52.504;13.480;2023-11-21T08:04:35;25.53;;;8.17;;
51866;SDS011;52862;52.504;13.480;2023-11-21T08:07:03;22.00;;;8.13;;
51866;SDS011;52862;52.504;13.480;2023-11-21T08:09:30;32.43;;;9.30;;
51866;SDS011;52862;52.504;13.480;2023-11-21T08:11:57;30.20;;;10.37;;
51866;SDS011;52862;52.504;13.480;2023-11-21T08:14:26;26.73;;;9.03;;
51866;SDS011;52862;52.504;13.480;2023-11-21T08:16:53;25.00;;;9.37;;
51866;SDS011;52862;52.504;13.480;2023-11-21T08:19:23;25.23;;;9.13;;
51866;SDS011;52862;52.504;13.480;2023-11-21T08:21:50;31.13;;;9.33;;
51866;SDS011;52862;52.504;13.480;2023-11-21T08:24:21;33.27;;;10.17;;
51866;SDS011;52862;52.504;13.480;2023-11-21T08:26:47;26.47;;;9.47;;
51866;SDS011;52862;52.504;13.480;2023-11-21T08:29:15;26.10;;;8.90;;
51866;SDS011;52862;52.504;13.480;2023-11-21T08:31:42;40.37;;;11.13;;
51866;SDS011;52862;52.504;13.480;2023-11-21T08:34:10;28.43;;;10.43;;
51866;SDS011;52862;52.504;13.480;2023-11-21T08:36:40;38.30;;;10.60;;
51866;SDS011;52862;52.504;13.480;2023-11-21T08:39:08;33.03;;;9.97;;
51866;SDS011;52862;52.504;13.480;2023-11-21T08:41:36;41.87;;;10.37;;
51866;SDS011;52862;52.504;13.480;2023-11-21T08:44:04;32.70;;;9.50;;
51866;SDS011;52862;52.504;13.480;2023-11-21T08:46:32;33.40;;;10.10;;
51866;SDS011;52862;52.504;13.480;2023-11-21T08:49:00;37.03;;;10.50;;
51866;SDS011;52862;52.504;13.480;2023-11-21T08:51:27;40.90;;;11.47;;
51866;SDS011;52862;52.504;13.480;2023-11-21T08:53:54;36.37;;;11.10;;
51866;SDS011;52862;52.504;13.480;2023-11-21T08:56:24;55.43;;;15.30;;
51866;SDS011;52862;52.504;13.480;2023-11-21T08:58:52;36.83;;;11.10;;
51866;SDS011;52862;52.504;13.480;2023-11-21T09:01:19;38.77;;;11.70;;
51866;SDS011;52862;52.504;13.480;2023-11-21T09:03:46;30.33;;;10.47;;
51866;SDS011;52862;52.504;13.480;2023-11-21T09:06:16;45.97;;;12.07;;
51866;SDS011;52862;52.504;13.480;2023-11-21T09:08:43;39.30;;;10.70;;
51866;SDS011;52862;52.504;13.480;2023-11-21T09:11:10;41.10;;;11.93;;
51866;SDS011;52862;52.504;13.480;2023-11-21T09:13:37;40.20;;;10.67;;
51866;SDS011;52862;52.504;13.480;2023-11-21T09:16:05;34.47;;;10.67;;
51866;SDS011;52862;52.504;13.480;2023-11-21T09:18:32;34.97;;;9.23;;
51866;SDS011;52862;52.504;13.480;2023-11-21T09:20:59;28.37;;;9.13;;
51866;SDS011;52862;52.504;13.480;2023-11-21T09:23:26;34.70;;;8.30;;
51866;SDS011;52862;52.504;13.480;2023-11-21T09:25:53;20.50;;;7.87;;
51866;SDS011;52862;52.504;13.480;2023-11-21T09:28:22;22.70;;;6.73;;
51866;SDS011;52862;52.504;13.480;2023-11-21T09:30:49;16.40;;;6.23;;
51866;SDS011;52862;52.504;13.480;2023-11-21T09:33:16;21.23;;;6.20;;
51866;SDS011;52862;52.504;13.480;2023-11-21T09:35:43;13.93;;;5.17;;
51866;SDS011;52862;52.504;13.480;2023-11-21T09:38:10;11.60;;;4.10;;
51866;SDS011;52862;52.504;13.480;2023-11-21T09:40:37;13.43;;;3.73;;
51866;SDS011;52862;52.504;13.480;2023-11-21T09:43:05;12.97;;;4.23;;
51866;SDS011;52862;52.504;13.480;2023-11-21T09:45:34;8.57;;;3.97;;
51866;SDS011;52862;52.504;13.480;2023-11-21T09:48:02;9.53;;;3.50;;
51866;SDS011;52862;52.504;13.480;2023-11-21T09:50:30;7.60;;;3.50;;
51866;SDS011;52862;52.504;13.480;2023-11-21T09:53:03;10.67;;;3.80;;
51866;SDS011;52862;52.504;13.480;2023-11-21T09:55:37;6.23;;;3.40;;
51866;SDS011;52862;52.504;13.480;2023-11-21T09:58:06;8.60;;;3.27;;
51866;SDS011;52862;52.504;13.480;2023-11-21T10:00:38;6.77;;;2.90;;
51866;SDS011;52862;52.504;13.480;2023-11-21T10:03:06;5.77;;;2.50;;
51866;SDS011;52862;52.504;13.480;2023-11-21T10:05:35;7.60;;;3.20;;
51866;SDS011;52862;52.504;13.480;2023-11-21T10:08:02;9.33;;;3.60;;
51866;SDS011;52862;52.504;13.480;2023-11-21T10:10:32;4.50;;;2.20;;
51866;SDS011;52862;52.504;13.480;2023-11-21T10:13:01;5.43;;;2.63;;
51866;SDS011;52862;52.504;13.480;2023-11-21T10:15:33;6.13;;;2.37;;
51866;SDS011;52862;52.504;13.480;2023-11-21T10:18:01;5.87;;;2.00;;
51866;SDS011;52862;52.504;13.480;2023-11-21T10:20:29;11.40;;;2.50;;
51866;SDS011;52862;52.504;13.480;2023-11-21T10:22:58;7.87;;;2.73;;
51866;SDS011;52862;52.504;13.480;2023-11-21T10:25:27;6.43;;;3.03;;
51866;SDS011;52862;52.504;13.480;2023-11-21T10:27:57;12.67;;;2.40;;
51866;SDS011;52862;52.504;13.480;2023-11-21T10:30:27;6.93;;;2.77;;
51866;SDS011;52862;52.504;13.480;2023-11-21T10:32:58;11.00;;;3.00;;
51866;SDS011;52862;52.504;13.480;2023-11-21T10:35:26;4.70;;;2.77;;
51866;SDS011;52862;52.504;13.480;2023-11-21T10:38:05;6.43;;;2.80;;
51866;SDS011;52862;52.504;13.480;2023-11-21T10:40:37;9.07;;;2.53;;
51866;SDS011;52862;52.504;13.480;2023-11-21T10:43:06;6.10;;;3.80;;
51866;SDS011;52862;52.504;13.480;2023-11-21T10:45:34;6.90;;;2.20;;
51866;SDS011;52862;52.504;13.480;2023-11-21T10:48:04;5.90;;;2.70;;
51866;SDS011;52862;52.504;13.480;2023-11-21T10:50:33;5.40;;;2.70;;
51866;SDS011;52862;52.504;13.480;2023-11-21T10:53:01;5.10;;;2.83;;
51866;SDS011;52862;52.504;13.480;2023-11-21T10:55:29;5.37;;;2.83;;
51866;SDS011;52862;52.504;13.480;2023-11-21T10:57:58;4.93;;;3.13;;
51866;SDS011;52862;52.504;13.480;2023-11-21T11:00:28;8.40;;;3.40;;
51866;SDS011;52862;52.504;13.480;2023-11-21T11:02:56;6.93;;;3.33;;
51866;SDS011;52862;52.504;13.480;2023-11-21T11:05:25;7.63;;;3.80;;
51866;SDS011;52862;52.504;13.480;2023-11-21T11:07:56;9.60;;;4.47;;
51866;SDS011;52862;52.504;13.480;2023-11-21T11:10:27;5.97;;;3.57;;
51866;SDS011;52862;52.504;13.480;2023-11-21T11:12:55;7.60;;;3.57;;
51866;SDS011;52862;52.504;13.480;2023-11-21T11:15:23;8.23;;;3.93;;
51866;SDS011;52862;52.504;13.480;2023-11-21T11:17:51;5.73;;;3.43;;
51866;SDS011;52862;52.504;13.480;2023-11-21T11:20:22;11.30;;;4.10;;
51866;SDS011;52862;52.504;13.480;2023-11-21T11:22:56;6.27;;;3.40;;
51866;SDS011;52862;52.504;13.480;2023-11-21T11:25:41;11.10;;;4.07;;
51866;SDS011;52862;52.504;13.480;2023-11-21T11:28:20;6.23;;;3.90;;
51866;SDS011;52862;52.504;13.480;2023-11-21T11:30:57;11.87;;;4.80;;
51866;SDS011;52862;52.504;13.480;2023-11-21T11:33:33;7.83;;;4.20;;
51866;SDS011;52862;52.504;13.480;2023-11-21T11:36:06;19.13;;;9.53;;
51866;SDS011;52862;52.504;13.480;2023-11-21T11:38:37;9.10;;;4.30;;
51866;SDS011;52862;52.504;13.480;2023-11-21T11:41:06;8.07;;;4.40;;
51866;SDS011;52862;52.504;13.480;2023-11-21T11:43:34;10.60;;;4.63;;
51866;SDS011;52862;52.504;13.480;2023-11-21T11:46:10;6.40;;;3.53;;
51866;SDS011;52862;52.504;13.480;2023-11-21T11:48:39;7.00;;;4.70;;
51866;SDS011;52862;52.504;13.480;2023-11-21T11:51:09;9.70;;;4.67;;
51866;SDS011;52862;52.504;13.480;2023-11-21T11:53:40;9.47;;;4.57;;
51866;SDS011;52862;52.504;13.480;2023-11-21T11:56:25;9.17;;;4.47;;
51866;SDS011;52862;52.504;13.480;2023-11-21T11:58:54;7.67;;;3.93;;
51866;SDS011;52862;52.504;13.480;2023-11-21T12:01:22;5.73;;;3.97;;
51866;SDS011;52862;52.504;13.480;2023-11-21T12:06:51;7.07;;;4.17;;
51866;SDS011;52862;52.504;13.480;2023-11-21T12:09:18;12.20;;;5.30;;
51866;SDS011;52862;52.504;13.480;2023-11-21T12:11:47;6.63;;;3.63;;
51866;SDS011;52862;52.504;13.480;2023-11-21T12:14:14;6.13;;;3.60;;
51866;SDS011;52862;52.504;13.480;2023-11-21T12:16:43;7.10;;;3.40;;
51866;SDS011;52862;52.504;13.480;2023-11-21T12:19:10;6.73;;;3.13;;
51866;SDS011;52862;52.504;13.480;2023-11-21T12:21:38;7.80;;;3.60;;
51866;SDS011;52862;52.504;13.480;2023-11-21T12:24:07;5.63;;;3.40;;
51866;SDS011;52862;52.504;13.480;2023-11-21T12:26:34;8.07;;;3.73;;
51866;SDS011;52862;52.504;13.480;2023-11-21T12:29:04;4.63;;;3.23;;
51866;SDS011;52862;52.504;13.480;2023-11-21T12:31:33;6.50;;;3.57;;
51866;SDS011;52862;52.504;13.480;2023-11-21T12:34:01;8.17;;;3.50;;
51866;SDS011;52862;52.504;13.480;2023-11-21T12:36:28;4.80;;;3.47;;
51866;SDS011;52862;52.504;13.480;2023-11-21T12:38:56;9.10;;;3.97;;
51866;SDS011;52862;52.504;13.480;2023-11-21T12:41:22;8.23;;;3.50;;
51866;SDS011;52862;52.504;13.480;2023-11-21T12:43:50;7.27;;;3.80;;
51866;SDS011;52862;52.504;13.480;2023-11-21T12:46:18;5.87;;;3.30;;
51866;SDS011;52862;52.504;13.480;2023-11-21T12:48:46;5.43;;;3.10;;
51866;SDS011;52862;52.504;13.480;2023-11-21T12:51:13;7.87;;;3.47;;
51866;SDS011;52862;52.504;13.480;2023-11-21T12:53:41;7.27;;;3.17;;
51866;SDS011;52862;52.504;13.480;2023-11-21T12:56:09;8.37;;;4.10;;
51866;SDS011;52862;52.504;13.480;2023-11-21T12:58:37;6.63;;;4.00;;
51866;SDS011;52862;52.504;13.480;2023-11-21T13:01:07;12.40;;;4.20;;
51866;SDS011;52862;52.504;13.480;2023-11-21T13:03:38;8.07;;;4.03;;
51866;SDS011;52862;52.504;13.480;2023-11-21T13:06:06;5.63;;;3.60;;
51866;SDS011;52862;52.504;13.480;2023-11-21T13:08:33;7.53;;;3.60;;
51866;SDS011;52862;52.504;13.480;2023-11-21T13:11:00;10.40;;;3.63;;
51866;SDS011;52862;52.504;13.480;2023-11-21T13:13:28;4.90;;;3.27;;
51866;SDS011;52862;52.504;13.480;2023-11-21T13:15:56;5.87;;;3.57;;
51866;SDS011;52862;52.504;13.480;2023-11-21T13:18:26;6.70;;;3.80;;
51866;SDS011;52862;52.504;13.480;2023-11-21T13:20:55;11.67;;;5.10;;
51866;SDS011;52862;52.504;13.480;2023-11-21T13:23:24;9.23;;;4.17;;
51866;SDS011;52862;52.504;13.480;2023-11-21T13:25:52;12.57;;;4.90;;
51866;SDS011;52862;52.504;13.480;2023-11-21T13:28:30;10.80;;;4.60;;
51866;SDS011;52862;52.504;13.480;2023-11-21T13:30:59;6.13;;;3.87;;
51866;SDS011;52862;52.504;13.480;2023-11-21T13:33:28;7.73;;;4.17;;
51866;SDS011;52862;52.504;13.480;2023-11-21T13:36:01;9.60;;;4.83;;
51866;SDS011;52862;52.504;13.480;2023-11-21T13:38:28;10.70;;;5.00;;
51866;SDS011;52862;52.504;13.480;2023-11-21T13:40:59;8.23;;;4.77;;
51866;SDS011;52862;52.504;13.480;2023-11-21T13:43:26;9.17;;;5.63;;
51866;SDS011;52862;52.504;13.480;2023-11-21T13:45:54;11.03;;;6.10;;
51866;SDS011;52862;52.504;13.480;2023-11-21T13:48:28;12.37;;;6.17;;
51866;SDS011;52862;52.504;13.480;2023-11-21T13:51:00;13.60;;;6.73;;
51866;SDS011;52862;52.504;13.480;2023-11-21T13:53:39;12.53;;;6.40;;
51866;SDS011;52862;52.504;13.480;2023-11-21T13:56:08;13.03;;;6.67;;
51866;SDS011;52862;52.504;13.480;2023-11-21T13:58:35;10.80;;;5.80;;
51866;SDS011;52862;52.504;13.480;2023-11-21T14:01:10;10.57;;;5.60;;
51866;SDS011;52862;52.504;13.480;2023-11-21T14:03:54;13.10;;;6.10;;
51866;SDS011;52862;52.504;13.480;2023-11-21T14:06:29;13.70;;;6.43;;
51866;SDS011;52862;52.504;13.480;2023-11-21T14:09:00;14.97;;;7.37;;
51866;SDS011;52862;52.504;13.480;2023-11-21T14:11:32;17.43;;;8.90;;
51866;SDS011;52862;52.504;13.480;2023-11-21T14:14:13;18.70;;;10.10;;
51866;SDS011;52862;52.504;13.480;2023-11-21T14:16:42;18.07;;;9.87;;
51866;SDS011;52862;52.504;13.480;2023-11-21T14:19:10;19.77;;;9.93;;
51866;SDS011;52862;52.504;13.480;2023-11-21T14:21:42;22.40;;;11.07;;
51866;SDS011;52862;52.504;13.480;2023-11-21T14:24:09;21.37;;;10.73;;
51866;SDS011;52862;52.504;13.480;2023-11-21T14:26:39;25.73;;;13.10;;